sensor_id;sensor_type;location;lat;lon;timestamp;P1;durP1;ratioP1;P2;durP2;ratioP2
31224;SDS011;17847;31.524;74.366;2024-03-02T00:02:07;40.60;;;28.85;;
31224;SDS011;17847;31.524;74.366;2024-03-02T00:04:36;40.72;;;29.70;;
31224;SDS011;17847;31.524;74.366;2024-03-02T00:07:07;36.70;;;27.85;;
31224;SDS011;17847;31.524;74.366;2024-03-02T00:09:36;39.42;;;29.13;;
31224;SDS011;17847;31.524;74.366;2024-03-02T00:12:08;42.40;;;29.52;;
31224;SDS011;17847;31.524;74.366;2024-03-02T00:14:41;50.72;;;29.27;;
31224;SDS011;17847;31.524;74.366;2024-03-02T00:17:14;41.67;;;30.42;;
31224;SDS011;17847;31.524;74.366;2024-03-02T00:19:53;49.57;;;29.87;;
31224;SDS011;17847;31.524;74.366;2024-03-02T00:22:22;41.72;;;29.92;;
31224;SDS011;17847;31.524;74.366;2024-03-02T00:24:52;40.28;;;29.67;;
31224;SDS011;17847;31.524;74.366;2024-03-02T00:27:21;41.33;;;30.05;;
31224;SDS011;17847;31.524;74.366;2024-03-02T00:29:53;43.63;;;30.20;;
31224;SDS011;17847;31.524;74.366;2024-03-02T00:32:25;42.53;;;29.92;;
31224;SDS011;17847;31.524;74.366;2024-03-02T00:34:56;45.83;;;30.83;;
31224;SDS011;17847;31.524;74.366;2024-03-02T00:37:26;43.53;;;29.98;;
31224;SDS011;17847;31.524;74.366;2024-03-02T00:39:56;44.00;;;29.98;;
31224;SDS011;17847;31.524;74.366;2024-03-02T00:42:26;40.20;;;30.50;;
31224;SDS011;17847;31.524;74.366;2024-03-02T00:44:55;43.70;;;29.70;;
31224;SDS011;17847;31.524;74.366;2024-03-02T00:47:25;42.33;;;29.35;;
31224;SDS011;17847;31.524;74.366;2024-03-02T00:49:54;42.53;;;30.60;;
31224;SDS011;17847;31.524;74.366;2024-03-02T00:52:24;43.15;;;31.23;;
31224;SDS011;17847;31.524;74.366;2024-03-02T00:54:56;42.03;;;29.58;;
31224;SDS011;17847;31.524;74.366;2024-03-02T00:57:27;42.65;;;30.85;;
31224;SDS011;17847;31.524;74.366;2024-03-02T01:00:00;44.85;;;31.55;;
31224;SDS011;17847;31.524;74.366;2024-03-02T01:02:32;46.95;;;31.92;;
31224;SDS011;17847;31.524;74.366;2024-03-02T01:05:01;44.63;;;30.52;;
31224;SDS011;17847;31.524;74.366;2024-03-02T01:07:30;41.88;;;29.85;;
31224;SDS011;17847;31.524;74.366;2024-03-02T01:10:00;44.97;;;31.02;;
31224;SDS011;17847;31.524;74.366;2024-03-02T01:12:30;41.67;;;29.90;;
31224;SDS011;17847;31.524;74.366;2024-03-02T01:14:59;40.08;;;28.65;;
31224;SDS011;17847;31.524;74.366;2024-03-02T01:17:29;42.35;;;29.27;;
31224;SDS011;17847;31.524;74.366;2024-03-02T01:19:58;37.40;;;29.58;;
31224;SDS011;17847;31.524;74.366;2024-03-02T01:22:28;43.03;;;29.48;;
31224;SDS011;17847;31.524;74.366;2024-03-02T01:24:57;43.28;;;31.58;;
31224;SDS011;17847;31.524;74.366;2024-03-02T01:27:26;41.28;;;29.08;;
31224;SDS011;17847;31.524;74.366;2024-03-02T01:29:56;39.70;;;28.23;;
31224;SDS011;17847;31.524;74.366;2024-03-02T01:32:28;39.90;;;29.02;;
31224;SDS011;17847;31.524;74.366;2024-03-02T01:34:58;41.40;;;29.67;;
31224;SDS011;17847;31.524;74.366;2024-03-02T01:37:28;45.83;;;28.88;;
31224;SDS011;17847;31.524;74.366;2024-03-02T01:39:57;39.22;;;28.00;;
31224;SDS011;17847;31.524;74.366;2024-03-02T01:42:27;44.55;;;29.52;;
31224;SDS011;17847;31.524;74.366;2024-03-02T01:44:57;42.47;;;28.92;;
31224;SDS011;17847;31.524;74.366;2024-03-02T01:47:27;39.38;;;29.25;;
31224;SDS011;17847;31.524;74.366;2024-03-02T01:49:56;37.80;;;28.27;;
31224;SDS011;17847;31.524;74.366;2024-03-02T01:52:27;51.30;;;29.23;;
31224;SDS011;17847;31.524;74.366;2024-03-02T01:54:58;40.70;;;28.58;;
31224;SDS011;17847;31.524;74.366;2024-03-02T01:57:27;42.38;;;28.90;;
31224;SDS011;17847;31.524;74.366;2024-03-02T01:59:56;39.90;;;29.10;;
31224;SDS011;17847;31.524;74.366;2024-03-02T02:02:26;41.22;;;29.23;;
31224;SDS011;17847;31.524;74.366;2024-03-02T02:04:56;43.13;;;28.88;;
31224;SDS011;17847;31.524;74.366;2024-03-02T02:07:25;42.20;;;29.38;;
31224;SDS011;17847;31.524;74.366;2024-03-02T02:09:54;38.67;;;28.60;;
31224;SDS011;17847;31.524;74.366;2024-03-02T02:12:24;44.28;;;28.63;;
31224;SDS011;17847;31.524;74.366;2024-03-02T02:14:54;36.20;;;28.45;;
31224;SDS011;17847;31.524;74.366;2024-03-02T02:17:23;43.13;;;29.40;;
31224;SDS011;17847;31.524;74.366;2024-03-02T02:19:52;37.95;;;28.95;;
31224;SDS011;17847;31.524;74.366;2024-03-02T02:22:22;41.97;;;29.23;;
31224;SDS011;17847;31.524;74.366;2024-03-02T02:24:51;41.67;;;28.95;;
31224;SDS011;17847;31.524;74.366;2024-03-02T02:27:21;41.42;;;29.48;;
31224;SDS011;17847;31.524;74.366;2024-03-02T02:29:50;42.78;;;29.02;;
31224;SDS011;17847;31.524;74.366;2024-03-02T02:32:19;41.20;;;30.27;;
31224;SDS011;17847;31.524;74.366;2024-03-02T02:34:52;47.28;;;29.58;;
31224;SDS011;17847;31.524;74.366;2024-03-02T02:37:22;40.80;;;30.35;;
31224;SDS011;17847;31.524;74.366;2024-03-02T02:39:51;45.58;;;29.48;;
31224;SDS011;17847;31.524;74.366;2024-03-02T02:42:21;40.88;;;29.70;;
31224;SDS011;17847;31.524;74.366;2024-03-02T02:44:51;43.95;;;28.95;;
31224;SDS011;17847;31.524;74.366;2024-03-02T02:47:20;45.95;;;29.95;;
31224;SDS011;17847;31.524;74.366;2024-03-02T02:49:49;43.67;;;29.80;;
31224;SDS011;17847;31.524;74.366;2024-03-02T02:52:19;38.92;;;29.02;;
31224;SDS011;17847;31.524;74.366;2024-03-02T02:54:49;47.40;;;28.90;;
31224;SDS011;17847;31.524;74.366;2024-03-02T02:57:19;42.67;;;28.80;;
31224;SDS011;17847;31.524;74.366;2024-03-02T02:59:49;41.85;;;28.85;;
31224;SDS011;17847;31.524;74.366;2024-03-02T03:02:18;48.00;;;28.52;;
31224;SDS011;17847;31.524;74.366;2024-03-02T03:04:48;38.80;;;28.92;;
31224;SDS011;17847;31.524;74.366;2024-03-02T03:07:17;38.03;;;28.27;;
31224;SDS011;17847;31.524;74.366;2024-03-02T03:09:47;39.97;;;26.90;;
31224;SDS011;17847;31.524;74.366;2024-03-02T03:12:16;36.30;;;26.92;;
31224;SDS011;17847;31.524;74.366;2024-03-02T03:14:46;36.83;;;27.13;;
31224;SDS011;17847;31.524;74.366;2024-03-02T03:17:15;40.95;;;27.52;;
31224;SDS011;17847;31.524;74.366;2024-03-02T03:19:45;42.40;;;28.80;;
31224;SDS011;17847;31.524;74.366;2024-03-02T03:22:15;40.17;;;26.52;;
31224;SDS011;17847;31.524;74.366;2024-03-02T03:24:45;34.00;;;26.70;;
31224;SDS011;17847;31.524;74.366;2024-03-02T03:27:15;43.63;;;27.33;;
31224;SDS011;17847;31.524;74.366;2024-03-02T03:29:44;44.20;;;26.27;;
31224;SDS011;17847;31.524;74.366;2024-03-02T03:32:14;35.10;;;25.27;;
31224;SDS011;17847;31.524;74.366;2024-03-02T03:34:45;39.72;;;24.50;;
31224;SDS011;17847;31.524;74.366;2024-03-02T03:37:16;38.15;;;24.98;;
31224;SDS011;17847;31.524;74.366;2024-03-02T03:39:46;32.95;;;24.45;;
31224;SDS011;17847;31.524;74.366;2024-03-02T03:42:16;34.92;;;23.20;;
31224;SDS011;17847;31.524;74.366;2024-03-02T03:44:45;30.98;;;23.25;;
31224;SDS011;17847;31.524;74.366;2024-03-02T03:47:15;33.40;;;23.05;;
31224;SDS011;17847;31.524;74.366;2024-03-02T03:49:44;29.77;;;20.75;;
31224;SDS011;17847;31.524;74.366;2024-03-02T03:52:14;33.60;;;21.67;;
31224;SDS011;17847;31.524;74.366;2024-03-02T03:54:43;27.38;;;20.13;;
31224;SDS011;17847;31.524;74.366;2024-03-02T03:57:13;26.83;;;20.95;;
31224;SDS011;17847;31.524;74.366;2024-03-02T03:59:42;30.90;;;20.52;;
31224;SDS011;17847;31.524;74.366;2024-03-02T04:02:13;29.13;;;22.20;;
31224;SDS011;17847;31.524;74.366;2024-03-02T04:04:43;29.77;;;19.85;;
31224;SDS011;17847;31.524;74.366;2024-03-02T04:07:13;32.35;;;20.23;;
31224;SDS011;17847;31.524;74.366;2024-03-02T04:09:42;35.15;;;20.00;;
31224;SDS011;17847;31.524;74.366;2024-03-02T04:12:11;32.30;;;19.10;;
31224;SDS011;17847;31.524;74.366;2024-03-02T04:14:41;25.23;;;17.83;;
31224;SDS011;17847;31.524;74.366;2024-03-02T04:17:11;30.95;;;19.92;;
31224;SDS011;17847;31.524;74.366;2024-03-02T04:19:41;28.05;;;19.33;;
31224;SDS011;17847;31.524;74.366;2024-03-02T04:22:11;24.40;;;17.90;;
31224;SDS011;17847;31.524;74.366;2024-03-02T04:24:51;27.45;;;18.67;;
31224;SDS011;17847;31.524;74.366;2024-03-02T04:27:21;27.83;;;18.55;;
31224;SDS011;17847;31.524;74.366;2024-03-02T04:29:51;25.33;;;17.85;;
31224;SDS011;17847;31.524;74.366;2024-03-02T04:32:20;24.20;;;16.75;;
31224;SDS011;17847;31.524;74.366;2024-03-02T04:34:50;23.70;;;16.35;;
31224;SDS011;17847;31.524;74.366;2024-03-02T04:37:19;26.10;;;16.30;;
31224;SDS011;17847;31.524;74.366;2024-03-02T04:39:49;23.38;;;15.88;;
31224;SDS011;17847;31.524;74.366;2024-03-02T04:42:18;22.85;;;15.82;;
31224;SDS011;17847;31.524;74.366;2024-03-02T04:44:48;23.90;;;14.70;;
31224;SDS011;17847;31.524;74.366;2024-03-02T04:47:17;24.30;;;15.45;;
31224;SDS011;17847;31.524;74.366;2024-03-02T04:49:47;20.52;;;13.88;;
31224;SDS011;17847;31.524;74.366;2024-03-02T04:52:16;22.15;;;14.25;;
31224;SDS011;17847;31.524;74.366;2024-03-02T04:54:46;23.92;;;14.13;;
31224;SDS011;17847;31.524;74.366;2024-03-02T04:57:34;18.98;;;13.98;;
31224;SDS011;17847;31.524;74.366;2024-03-02T05:00:03;24.48;;;13.77;;
31224;SDS011;17847;31.524;74.366;2024-03-02T05:02:35;21.52;;;12.57;;
31224;SDS011;17847;31.524;74.366;2024-03-02T05:05:05;17.67;;;12.70;;
31224;SDS011;17847;31.524;74.366;2024-03-02T05:07:34;18.20;;;12.73;;
31224;SDS011;17847;31.524;74.366;2024-03-02T05:10:05;18.00;;;12.88;;
31224;SDS011;17847;31.524;74.366;2024-03-02T05:12:35;22.38;;;13.60;;
31224;SDS011;17847;31.524;74.366;2024-03-02T05:15:12;26.08;;;13.38;;
31224;SDS011;17847;31.524;74.366;2024-03-02T05:17:44;18.77;;;12.93;;
31224;SDS011;17847;31.524;74.366;2024-03-02T05:20:13;20.08;;;12.40;;
31224;SDS011;17847;31.524;74.366;2024-03-02T05:22:44;27.58;;;13.15;;
31224;SDS011;17847;31.524;74.366;2024-03-02T05:25:13;19.50;;;11.88;;
31224;SDS011;17847;31.524;74.366;2024-03-02T05:27:43;22.23;;;11.85;;
31224;SDS011;17847;31.524;74.366;2024-03-02T05:30:12;20.20;;;11.88;;
31224;SDS011;17847;31.524;74.366;2024-03-02T05:32:43;20.30;;;11.18;;
31224;SDS011;17847;31.524;74.366;2024-03-02T05:35:12;17.83;;;10.52;;
31224;SDS011;17847;31.524;74.366;2024-03-02T05:37:42;20.10;;;10.68;;
31224;SDS011;17847;31.524;74.366;2024-03-02T05:40:11;19.83;;;11.23;;
31224;SDS011;17847;31.524;74.366;2024-03-02T05:42:41;18.20;;;11.52;;
31224;SDS011;17847;31.524;74.366;2024-03-02T05:45:11;21.83;;;11.50;;
31224;SDS011;17847;31.524;74.366;2024-03-02T05:47:40;18.63;;;12.85;;
31224;SDS011;17847;31.524;74.366;2024-03-02T05:50:10;25.15;;;13.65;;
31224;SDS011;17847;31.524;74.366;2024-03-02T05:52:40;24.02;;;14.27;;
31224;SDS011;17847;31.524;74.366;2024-03-02T05:55:10;20.58;;;14.13;;
31224;SDS011;17847;31.524;74.366;2024-03-02T05:57:40;27.23;;;13.48;;
31224;SDS011;17847;31.524;74.366;2024-03-02T06:00:12;20.77;;;13.07;;
31224;SDS011;17847;31.524;74.366;2024-03-02T06:02:45;20.70;;;12.63;;
31224;SDS011;17847;31.524;74.366;2024-03-02T06:05:15;26.10;;;13.35;;
31224;SDS011;17847;31.524;74.366;2024-03-02T06:07:46;27.13;;;13.05;;
31224;SDS011;17847;31.524;74.366;2024-03-02T06:10:17;24.45;;;13.88;;
31224;SDS011;17847;31.524;74.366;2024-03-02T06:12:46;25.42;;;14.05;;
31224;SDS011;17847;31.524;74.366;2024-03-02T06:15:16;30.42;;;14.45;;
31224;SDS011;17847;31.524;74.366;2024-03-02T06:17:46;23.65;;;14.38;;
31224;SDS011;17847;31.524;74.366;2024-03-02T06:20:16;22.00;;;14.13;;
31224;SDS011;17847;31.524;74.366;2024-03-02T06:22:46;28.00;;;13.90;;
31224;SDS011;17847;31.524;74.366;2024-03-02T06:25:15;30.83;;;12.95;;
31224;SDS011;17847;31.524;74.366;2024-03-02T06:27:45;23.45;;;12.35;;
31224;SDS011;17847;31.524;74.366;2024-03-02T06:30:15;22.40;;;12.52;;
31224;SDS011;17847;31.524;74.366;2024-03-02T06:32:45;20.00;;;11.80;;
31224;SDS011;17847;31.524;74.366;2024-03-02T06:35:14;19.33;;;11.77;;
31224;SDS011;17847;31.524;74.366;2024-03-02T06:37:44;29.23;;;12.07;;
31224;SDS011;17847;31.524;74.366;2024-03-02T06:40:16;29.17;;;13.43;;
31224;SDS011;17847;31.524;74.366;2024-03-02T06:42:45;23.92;;;12.93;;
31224;SDS011;17847;31.524;74.366;2024-03-02T06:45:15;23.95;;;13.15;;
31224;SDS011;17847;31.524;74.366;2024-03-02T06:47:45;21.95;;;14.00;;
31224;SDS011;17847;31.524;74.366;2024-03-02T06:50:14;26.83;;;13.48;;
31224;SDS011;17847;31.524;74.366;2024-03-02T06:52:45;23.02;;;14.10;;
31224;SDS011;17847;31.524;74.366;2024-03-02T06:55:14;17.58;;;12.07;;
31224;SDS011;17847;31.524;74.366;2024-03-02T06:57:44;26.73;;;13.35;;
31224;SDS011;17847;31.524;74.366;2024-03-02T07:00:14;27.85;;;13.65;;
31224;SDS011;17847;31.524;74.366;2024-03-02T07:02:44;25.83;;;13.30;;
31224;SDS011;17847;31.524;74.366;2024-03-02T07:05:14;22.65;;;13.48;;
31224;SDS011;17847;31.524;74.366;2024-03-02T07:07:46;25.23;;;13.48;;
31224;SDS011;17847;31.524;74.366;2024-03-02T07:10:15;18.25;;;11.65;;
31224;SDS011;17847;31.524;74.366;2024-03-02T07:12:45;25.75;;;12.93;;
31224;SDS011;17847;31.524;74.366;2024-03-02T07:15:14;21.95;;;12.40;;
31224;SDS011;17847;31.524;74.366;2024-03-02T07:17:56;20.15;;;12.38;;
31224;SDS011;17847;31.524;74.366;2024-03-02T07:20:25;20.25;;;12.18;;
31224;SDS011;17847;31.524;74.366;2024-03-02T07:22:55;21.10;;;11.60;;
31224;SDS011;17847;31.524;74.366;2024-03-02T07:25:26;23.15;;;14.10;;
31224;SDS011;17847;31.524;74.366;2024-03-02T07:27:58;24.60;;;12.75;;
31224;SDS011;17847;31.524;74.366;2024-03-02T07:30:28;19.55;;;10.18;;
31224;SDS011;17847;31.524;74.366;2024-03-02T07:33:00;23.30;;;11.38;;
31224;SDS011;17847;31.524;74.366;2024-03-02T07:35:30;27.83;;;10.20;;
31224;SDS011;17847;31.524;74.366;2024-03-02T07:38:00;18.52;;;10.75;;
31224;SDS011;17847;31.524;74.366;2024-03-02T07:40:30;18.27;;;10.55;;
31224;SDS011;17847;31.524;74.366;2024-03-02T07:43:02;22.63;;;11.73;;
31224;SDS011;17847;31.524;74.366;2024-03-02T07:45:34;22.73;;;10.85;;
31224;SDS011;17847;31.524;74.366;2024-03-02T07:48:06;21.63;;;11.70;;
31224;SDS011;17847;31.524;74.366;2024-03-02T07:50:36;27.30;;;11.38;;
31224;SDS011;17847;31.524;74.366;2024-03-02T07:53:07;27.30;;;11.07;;
31224;SDS011;17847;31.524;74.366;2024-03-02T07:55:38;25.70;;;11.80;;
31224;SDS011;17847;31.524;74.366;2024-03-02T07:58:10;23.80;;;11.40;;
31224;SDS011;17847;31.524;74.366;2024-03-02T08:00:41;24.95;;;10.10;;
31224;SDS011;17847;31.524;74.366;2024-03-02T08:03:13;20.55;;;10.00;;
31224;SDS011;17847;31.524;74.366;2024-03-02T08:05:54;20.50;;;10.30;;
31224;SDS011;17847;31.524;74.366;2024-03-02T08:08:24;24.27;;;9.32;;
31224;SDS011;17847;31.524;74.366;2024-03-02T08:10:53;26.33;;;10.07;;
31224;SDS011;17847;31.524;74.366;2024-03-02T08:13:25;18.83;;;9.00;;
31224;SDS011;17847;31.524;74.366;2024-03-02T08:15:54;25.23;;;8.63;;
31224;SDS011;17847;31.524;74.366;2024-03-02T08:18:24;22.35;;;9.13;;
31224;SDS011;17847;31.524;74.366;2024-03-02T08:20:54;16.63;;;9.05;;
31224;SDS011;17847;31.524;74.366;2024-03-02T08:23:23;26.25;;;10.10;;
31224;SDS011;17847;31.524;74.366;2024-03-02T08:25:53;24.77;;;9.63;;
31224;SDS011;17847;31.524;74.366;2024-03-02T08:28:23;25.73;;;8.30;;
31224;SDS011;17847;31.524;74.366;2024-03-02T08:30:52;23.20;;;8.57;;
31224;SDS011;17847;31.524;74.366;2024-03-02T08:33:25;21.33;;;6.47;;
31224;SDS011;17847;31.524;74.366;2024-03-02T08:35:55;20.13;;;7.57;;
31224;SDS011;17847;31.524;74.366;2024-03-02T08:38:28;24.30;;;6.13;;
31224;SDS011;17847;31.524;74.366;2024-03-02T08:41:00;17.80;;;6.07;;
31224;SDS011;17847;31.524;74.366;2024-03-02T08:43:30;23.25;;;7.18;;
31224;SDS011;17847;31.524;74.366;2024-03-02T08:45:59;13.73;;;6.68;;
31224;SDS011;17847;31.524;74.366;2024-03-02T08:48:29;17.90;;;7.03;;
31224;SDS011;17847;31.524;74.366;2024-03-02T08:51:01;23.13;;;8.27;;
31224;SDS011;17847;31.524;74.366;2024-03-02T08:53:33;15.48;;;6.05;;
31224;SDS011;17847;31.524;74.366;2024-03-02T08:56:02;21.40;;;5.63;;
31224;SDS011;17847;31.524;74.366;2024-03-02T08:58:34;24.40;;;5.70;;
31224;SDS011;17847;31.524;74.366;2024-03-02T09:01:04;18.63;;;5.70;;
31224;SDS011;17847;31.524;74.366;2024-03-02T09:03:35;16.63;;;6.25;;
31224;SDS011;17847;31.524;74.366;2024-03-02T09:06:05;17.52;;;6.88;;
31224;SDS011;17847;31.524;74.366;2024-03-02T09:08:35;28.80;;;5.72;;
31224;SDS011;17847;31.524;74.366;2024-03-02T09:11:08;13.48;;;5.03;;
31224;SDS011;17847;31.524;74.366;2024-03-02T09:13:39;28.75;;;5.57;;
31224;SDS011;17847;31.524;74.366;2024-03-02T09:16:08;17.63;;;5.60;;
31224;SDS011;17847;31.524;74.366;2024-03-02T09:18:39;18.85;;;5.18;;
31224;SDS011;17847;31.524;74.366;2024-03-02T09:21:09;21.27;;;4.70;;
31224;SDS011;17847;31.524;74.366;2024-03-02T09:23:39;11.70;;;4.97;;
31224;SDS011;17847;31.524;74.366;2024-03-02T09:26:08;20.95;;;4.70;;
31224;SDS011;17847;31.524;74.366;2024-03-02T09:28:44;21.05;;;6.53;;
31224;SDS011;17847;31.524;74.366;2024-03-02T09:31:13;19.52;;;4.60;;
31224;SDS011;17847;31.524;74.366;2024-03-02T09:33:43;17.77;;;5.18;;
31224;SDS011;17847;31.524;74.366;2024-03-02T09:36:19;17.40;;;4.75;;
31224;SDS011;17847;31.524;74.366;2024-03-02T09:38:50;15.70;;;4.82;;
31224;SDS011;17847;31.524;74.366;2024-03-02T09:41:23;17.30;;;4.68;;
31224;SDS011;17847;31.524;74.366;2024-03-02T09:43:53;20.85;;;5.03;;
31224;SDS011;17847;31.524;74.366;2024-03-02T09:46:23;16.33;;;5.60;;
31224;SDS011;17847;31.524;74.366;2024-03-02T09:48:53;12.07;;;5.22;;
31224;SDS011;17847;31.524;74.366;2024-03-02T09:51:23;17.30;;;5.68;;
31224;SDS011;17847;31.524;74.366;2024-03-02T09:53:54;16.13;;;5.05;;
31224;SDS011;17847;31.524;74.366;2024-03-02T09:56:39;24.45;;;6.40;;
31224;SDS011;17847;31.524;74.366;2024-03-02T09:59:09;14.48;;;5.50;;
31224;SDS011;17847;31.524;74.366;2024-03-02T10:01:38;9.88;;;5.30;;
31224;SDS011;17847;31.524;74.366;2024-03-02T10:04:08;9.45;;;5.07;;
31224;SDS011;17847;31.524;74.366;2024-03-02T10:06:39;7.38;;;4.50;;
31224;SDS011;17847;31.524;74.366;2024-03-02T10:09:08;12.23;;;5.82;;
31224;SDS011;17847;31.524;74.366;2024-03-02T10:11:38;11.27;;;4.93;;
31224;SDS011;17847;31.524;74.366;2024-03-02T10:14:11;16.65;;;4.85;;
31224;SDS011;17847;31.524;74.366;2024-03-02T10:16:42;11.15;;;5.53;;
31224;SDS011;17847;31.524;74.366;2024-03-02T10:19:20;17.95;;;6.40;;
31224;SDS011;17847;31.524;74.366;2024-03-02T10:21:51;13.80;;;5.43;;
31224;SDS011;17847;31.524;74.366;2024-03-02T10:24:22;14.70;;;6.35;;
31224;SDS011;17847;31.524;74.366;2024-03-02T10:26:52;13.93;;;4.93;;
31224;SDS011;17847;31.524;74.366;2024-03-02T10:29:22;9.85;;;6.03;;
31224;SDS011;17847;31.524;74.366;2024-03-02T10:31:55;11.57;;;5.72;;
31224;SDS011;17847;31.524;74.366;2024-03-02T10:34:27;15.20;;;5.70;;
31224;SDS011;17847;31.524;74.366;2024-03-02T10:36:57;16.88;;;5.85;;
31224;SDS011;17847;31.524;74.366;2024-03-02T10:39:30;14.40;;;5.57;;
31224;SDS011;17847;31.524;74.366;2024-03-02T10:42:02;13.18;;;5.85;;
31224;SDS011;17847;31.524;74.366;2024-03-02T10:44:32;14.23;;;5.05;;
31224;SDS011;17847;31.524;74.366;2024-03-02T10:47:05;14.25;;;6.30;;
31224;SDS011;17847;31.524;74.366;2024-03-02T10:49:35;10.73;;;5.57;;
31224;SDS011;17847;31.524;74.366;2024-03-02T10:52:07;13.68;;;5.63;;
31224;SDS011;17847;31.524;74.366;2024-03-02T10:54:38;13.63;;;5.68;;
31224;SDS011;17847;31.524;74.366;2024-03-02T10:57:08;13.98;;;5.68;;
31224;SDS011;17847;31.524;74.366;2024-03-02T10:59:49;16.52;;;5.82;;
31224;SDS011;17847;31.524;74.366;2024-03-02T11:02:21;15.10;;;6.55;;
31224;SDS011;17847;31.524;74.366;2024-03-02T11:04:54;10.73;;;5.40;;
31224;SDS011;17847;31.524;74.366;2024-03-02T11:07:25;13.57;;;5.03;;
31224;SDS011;17847;31.524;74.366;2024-03-02T11:09:57;14.10;;;5.68;;
31224;SDS011;17847;31.524;74.366;2024-03-02T11:12:31;11.13;;;5.70;;
31224;SDS011;17847;31.524;74.366;2024-03-02T11:15:09;9.68;;;5.65;;
31224;SDS011;17847;31.524;74.366;2024-03-02T11:17:40;13.48;;;5.93;;
31224;SDS011;17847;31.524;74.366;2024-03-02T11:20:10;15.80;;;6.05;;
31224;SDS011;17847;31.524;74.366;2024-03-02T11:22:40;11.02;;;5.40;;
31224;SDS011;17847;31.524;74.366;2024-03-02T11:25:31;11.63;;;5.75;;
31224;SDS011;17847;31.524;74.366;2024-03-02T11:28:09;11.38;;;5.70;;
31224;SDS011;17847;31.524;74.366;2024-03-02T11:33:11;12.75;;;5.97;;
31224;SDS011;17847;31.524;74.366;2024-03-02T11:35:41;11.70;;;5.97;;
31224;SDS011;17847;31.524;74.366;2024-03-02T11:38:11;11.68;;;6.65;;
31224;SDS011;17847;31.524;74.366;2024-03-02T11:40:41;9.65;;;5.45;;
31224;SDS011;17847;31.524;74.366;2024-03-02T11:43:11;9.85;;;5.28;;
31224;SDS011;17847;31.524;74.366;2024-03-02T11:45:43;10.88;;;5.07;;
31224;SDS011;17847;31.524;74.366;2024-03-02T11:48:14;12.23;;;5.93;;
31224;SDS011;17847;31.524;74.366;2024-03-02T11:50:48;9.95;;;5.13;;
31224;SDS011;17847;31.524;74.366;2024-03-02T11:53:19;8.73;;;5.22;;
31224;SDS011;17847;31.524;74.366;2024-03-02T11:55:50;10.55;;;5.40;;
31224;SDS011;17847;31.524;74.366;2024-03-02T11:58:21;12.27;;;5.50;;
31224;SDS011;17847;31.524;74.366;2024-03-02T12:00:58;12.32;;;5.22;;
31224;SDS011;17847;31.524;74.366;2024-03-02T12:03:28;13.10;;;5.43;;
31224;SDS011;17847;31.524;74.366;2024-03-02T12:05:57;14.00;;;6.25;;
31224;SDS011;17847;31.524;74.366;2024-03-02T12:08:28;13.90;;;5.85;;
31224;SDS011;17847;31.524;74.366;2024-03-02T12:10:58;15.13;;;6.63;;
31224;SDS011;17847;31.524;74.366;2024-03-02T12:13:31;16.17;;;6.10;;
31224;SDS011;17847;31.524;74.366;2024-03-02T12:16:03;9.43;;;5.43;;
31224;SDS011;17847;31.524;74.366;2024-03-02T12:18:33;14.73;;;5.63;;
31224;SDS011;17847;31.524;74.366;2024-03-02T12:21:05;8.27;;;5.03;;
31224;SDS011;17847;31.524;74.366;2024-03-02T12:23:37;10.15;;;5.63;;
31224;SDS011;17847;31.524;74.366;2024-03-02T12:26:07;13.15;;;5.70;;
31224;SDS011;17847;31.524;74.366;2024-03-02T12:28:36;10.48;;;5.15;;
31224;SDS011;17847;31.524;74.366;2024-03-02T12:31:07;12.40;;;5.90;;
31224;SDS011;17847;31.524;74.366;2024-03-02T12:33:38;11.90;;;5.90;;
31224;SDS011;17847;31.524;74.366;2024-03-02T12:36:13;14.93;;;6.43;;
31224;SDS011;17847;31.524;74.366;2024-03-02T12:38:45;9.88;;;6.20;;
31224;SDS011;17847;31.524;74.366;2024-03-02T12:41:15;10.57;;;5.38;;
31224;SDS011;17847;31.524;74.366;2024-03-02T12:43:45;12.02;;;5.20;;
31224;SDS011;17847;31.524;74.366;2024-03-02T12:46:15;14.65;;;5.85;;
31224;SDS011;17847;31.524;74.366;2024-03-02T12:48:44;15.48;;;5.93;;
31224;SDS011;17847;31.524;74.366;2024-03-02T12:51:15;14.52;;;5.65;;
31224;SDS011;17847;31.524;74.366;2024-03-02T12:53:45;16.58;;;6.25;;
31224;SDS011;17847;31.524;74.366;2024-03-02T12:56:21;13.48;;;5.88;;
31224;SDS011;17847;31.524;74.366;2024-03-02T12:58:54;16.73;;;6.47;;
31224;SDS011;17847;31.524;74.366;2024-03-02T13:01:24;10.60;;;6.63;;
31224;SDS011;17847;31.524;74.366;2024-03-02T13:03:57;12.80;;;6.90;;
31224;SDS011;17847;31.524;74.366;2024-03-02T13:06:28;9.20;;;5.50;;
31224;SDS011;17847;31.524;74.366;2024-03-02T13:08:57;8.30;;;3.70;;
31224;SDS011;17847;31.524;74.366;2024-03-02T13:11:27;8.43;;;3.70;;
31224;SDS011;17847;31.524;74.366;2024-03-02T13:13:56;9.00;;;3.90;;
31224;SDS011;17847;31.524;74.366;2024-03-02T13:16:26;16.42;;;4.88;;
31224;SDS011;17847;31.524;74.366;2024-03-02T13:19:11;10.40;;;4.28;;
31224;SDS011;17847;31.524;74.366;2024-03-02T13:21:40;6.68;;;4.15;;
31224;SDS011;17847;31.524;74.366;2024-03-02T13:24:10;8.75;;;4.25;;
31224;SDS011;17847;31.524;74.366;2024-03-02T13:26:40;11.00;;;4.93;;
31224;SDS011;17847;31.524;74.366;2024-03-02T13:29:09;12.95;;;5.45;;
31224;SDS011;17847;31.524;74.366;2024-03-02T13:31:39;10.15;;;5.13;;
31224;SDS011;17847;31.524;74.366;2024-03-02T13:34:08;11.35;;;5.90;;
31224;SDS011;17847;31.524;74.366;2024-03-02T13:36:37;7.40;;;5.40;;
31224;SDS011;17847;31.524;74.366;2024-03-02T13:39:07;13.98;;;5.93;;
31224;SDS011;17847;31.524;74.366;2024-03-02T13:41:44;11.63;;;6.38;;
31224;SDS011;17847;31.524;74.366;2024-03-02T13:44:21;13.30;;;6.80;;
31224;SDS011;17847;31.524;74.366;2024-03-02T13:46:51;14.25;;;7.75;;
31224;SDS011;17847;31.524;74.366;2024-03-02T13:49:20;17.40;;;9.10;;
31224;SDS011;17847;31.524;74.366;2024-03-02T13:51:51;15.13;;;10.10;;
31224;SDS011;17847;31.524;74.366;2024-03-02T13:54:20;15.13;;;10.52;;
31224;SDS011;17847;31.524;74.366;2024-03-02T13:56:50;16.35;;;12.77;;
31224;SDS011;17847;31.524;74.366;2024-03-02T13:59:21;15.75;;;11.43;;
31224;SDS011;17847;31.524;74.366;2024-03-02T14:01:51;16.65;;;13.02;;
31224;SDS011;17847;31.524;74.366;2024-03-02T14:04:21;16.67;;;12.93;;
31224;SDS011;17847;31.524;74.366;2024-03-02T14:06:51;21.60;;;12.70;;
31224;SDS011;17847;31.524;74.366;2024-03-02T14:09:21;16.45;;;13.95;;
31224;SDS011;17847;31.524;74.366;2024-03-02T14:11:54;20.13;;;13.48;;
31224;SDS011;17847;31.524;74.366;2024-03-02T14:14:25;16.85;;;14.27;;
31224;SDS011;17847;31.524;74.366;2024-03-02T14:16:55;19.45;;;14.13;;
31224;SDS011;17847;31.524;74.366;2024-03-02T14:19:29;19.42;;;14.38;;
31224;SDS011;17847;31.524;74.366;2024-03-02T14:21:59;19.08;;;14.88;;
31224;SDS011;17847;31.524;74.366;2024-03-02T14:24:28;21.17;;;14.98;;
31224;SDS011;17847;31.524;74.366;2024-03-02T14:26:58;17.48;;;13.35;;
31224;SDS011;17847;31.524;74.366;2024-03-02T14:29:46;17.25;;;13.90;;
31224;SDS011;17847;31.524;74.366;2024-03-02T14:32:15;18.77;;;13.95;;
31224;SDS011;17847;31.524;74.366;2024-03-02T14:34:45;18.20;;;15.32;;
31224;SDS011;17847;31.524;74.366;2024-03-02T14:37:15;18.55;;;14.73;;